Terminal Aerodrome Forecast
Issued by NWS

Home | Current Version | Previous Version | Text Only | Print | Product List | Glossary On
Versions: 1 2 3 4 5 6 7 8 9 10 11 12 13 14 15 16 17 18 19 20 21 22 23 24 25
000
FTUS42 KTBW 260500
TAFPIE
TAF
KPIE 260540Z 2606/2706 22007KT P6SM -RA SCT005 OVC140
      TEMPO 2606/2608 3SM -RA BR BKN004
     FM260800 32016G25KT P6SM VCSH FEW005 OVC025
     FM261200 34017G25KT P6SM VCSH SCT015 BKN050
     FM261800 32012G20KT P6SM FEW020 SCT150
     FM262300 34005KT P6SM FEW250=

USA.gov is the U.S. government's official web portal to all federal, state and local government web resources and services.